sensor_id;sensor_type;location;lat;lon;timestamp;temperature;humidity
7842;DHT22;3966;51.052;13.820;2023-06-14T00:00:14;16.40;99.90
7842;DHT22;3966;51.052;13.820;2023-06-14T00:02:40;16.60;99.90
7842;DHT22;3966;51.052;13.820;2023-06-14T00:05:07;16.40;99.90
7842;DHT22;3966;51.052;13.820;2023-06-14T00:07:34;16.80;99.90
7842;DHT22;3966;51.052;13.820;2023-06-14T00:10:00;16.90;99.90
7842;DHT22;3966;51.052;13.820;2023-06-14T00:12:26;16.80;99.90
7842;DHT22;3966;51.052;13.820;2023-06-14T00:14:51;16.60;99.90
7842;DHT22;3966;51.052;13.820;2023-06-14T00:17:17;16.40;99.90
7842;DHT22;3966;51.052;13.820;2023-06-14T00:19:42;16.40;99.90
7842;DHT22;3966;51.052;13.820;2023-06-14T00:22:08;16.50;99.90
7842;DHT22;3966;51.052;13.820;2023-06-14T00:24:34;16.10;99.90
7842;DHT22;3966;51.052;13.820;2023-06-14T00:27:00;15.50;99.90
7842;DHT22;3966;51.052;13.820;2023-06-14T00:29:26;15.70;99.90
7842;DHT22;3966;51.052;13.820;2023-06-14T00:31:51;15.60;99.90
7842;DHT22;3966;51.052;13.820;2023-06-14T00:34:17;15.90;99.90
7842;DHT22;3966;51.052;13.820;2023-06-14T00:36:42;15.90;99.90
7842;DHT22;3966;51.052;13.820;2023-06-14T00:39:08;15.90;99.90
7842;DHT22;3966;51.052;13.820;2023-06-14T00:41:35;16.20;99.90
7842;DHT22;3966;51.052;13.820;2023-06-14T00:44:00;16.20;99.90
7842;DHT22;3966;51.052;13.820;2023-06-14T00:46:26;16.00;99.90
7842;DHT22;3966;51.052;13.820;2023-06-14T00:48:52;16.00;99.90
7842;DHT22;3966;51.052;13.820;2023-06-14T00:51:18;16.00;99.90
7842;DHT22;3966;51.052;13.820;2023-06-14T00:53:44;15.90;99.90
7842;DHT22;3966;51.052;13.820;2023-06-14T00:56:13;16.00;99.90
7842;DHT22;3966;51.052;13.820;2023-06-14T00:58:40;15.90;99.90
7842;DHT22;3966;51.052;13.820;2023-06-14T01:01:06;15.70;99.90
7842;DHT22;3966;51.052;13.820;2023-06-14T01:03:32;15.40;99.90
7842;DHT22;3966;51.052;13.820;2023-06-14T01:09:18;15.70;99.90
7842;DHT22;3966;51.052;13.820;2023-06-14T01:14:21;15.90;99.90
7842;DHT22;3966;51.052;13.820;2023-06-14T01:16:47;15.80;99.90
7842;DHT22;3966;51.052;13.820;2023-06-14T01:19:18;15.50;99.90
7842;DHT22;3966;51.052;13.820;2023-06-14T01:21:48;15.40;99.90
7842;DHT22;3966;51.052;13.820;2023-06-14T01:24:16;15.10;99.90
7842;DHT22;3966;51.052;13.820;2023-06-14T01:26:45;15.00;99.90
7842;DHT22;3966;51.052;13.820;2023-06-14T01:29:17;15.20;99.90
7842;DHT22;3966;51.052;13.820;2023-06-14T01:31:43;15.30;99.90
7842;DHT22;3966;51.052;13.820;2023-06-14T01:34:09;15.50;99.90
7842;DHT22;3966;51.052;13.820;2023-06-14T01:36:36;15.50;99.90
7842;DHT22;3966;51.052;13.820;2023-06-14T01:39:05;15.70;99.90
7842;DHT22;3966;51.052;13.820;2023-06-14T01:41:31;15.50;99.90
7842;DHT22;3966;51.052;13.820;2023-06-14T01:43:58;15.30;99.90
7842;DHT22;3966;51.052;13.820;2023-06-14T01:46:25;15.00;99.90
7842;DHT22;3966;51.052;13.820;2023-06-14T01:48:51;14.70;99.90
7842;DHT22;3966;51.052;13.820;2023-06-14T01:51:17;14.60;99.90
7842;DHT22;3966;51.052;13.820;2023-06-14T01:53:42;14.70;99.90
7842;DHT22;3966;51.052;13.820;2023-06-14T01:56:08;14.80;99.90
7842;DHT22;3966;51.052;13.820;2023-06-14T01:58:34;14.50;99.90
7842;DHT22;3966;51.052;13.820;2023-06-14T02:01:00;14.50;99.90
7842;DHT22;3966;51.052;13.820;2023-06-14T02:03:26;14.60;99.90
7842;DHT22;3966;51.052;13.820;2023-06-14T02:05:52;15.20;99.90
7842;DHT22;3966;51.052;13.820;2023-06-14T02:08:19;15.50;99.90
7842;DHT22;3966;51.052;13.820;2023-06-14T02:10:45;15.50;99.90
7842;DHT22;3966;51.052;13.820;2023-06-14T02:13:11;15.50;99.90
7842;DHT22;3966;51.052;13.820;2023-06-14T02:15:37;15.20;99.90
7842;DHT22;3966;51.052;13.820;2023-06-14T02:18:03;15.20;99.90
7842;DHT22;3966;51.052;13.820;2023-06-14T02:20:29;15.10;99.90
7842;DHT22;3966;51.052;13.820;2023-06-14T02:22:56;14.90;99.90
7842;DHT22;3966;51.052;13.820;2023-06-14T02:25:21;14.80;99.90
7842;DHT22;3966;51.052;13.820;2023-06-14T02:27:47;14.40;99.90
7842;DHT22;3966;51.052;13.820;2023-06-14T02:30:13;14.00;99.90
7842;DHT22;3966;51.052;13.820;2023-06-14T02:32:38;13.10;99.90
7842;DHT22;3966;51.052;13.820;2023-06-14T02:35:06;12.40;99.90
7842;DHT22;3966;51.052;13.820;2023-06-14T02:37:32;12.20;99.90
7842;DHT22;3966;51.052;13.820;2023-06-14T02:39:58;11.90;99.90
7842;DHT22;3966;51.052;13.820;2023-06-14T02:42:24;11.80;99.90
7842;DHT22;3966;51.052;13.820;2023-06-14T02:44:50;11.90;99.90
7842;DHT22;3966;51.052;13.820;2023-06-14T02:47:17;12.40;99.90
7842;DHT22;3966;51.052;13.820;2023-06-14T02:49:43;12.60;99.90
7842;DHT22;3966;51.052;13.820;2023-06-14T02:52:08;12.50;99.90
7842;DHT22;3966;51.052;13.820;2023-06-14T02:54:34;12.70;99.90
7842;DHT22;3966;51.052;13.820;2023-06-14T02:57:00;13.40;99.90
7842;DHT22;3966;51.052;13.820;2023-06-14T02:59:25;13.80;99.90
7842;DHT22;3966;51.052;13.820;2023-06-14T03:01:51;14.10;99.90
7842;DHT22;3966;51.052;13.820;2023-06-14T03:04:17;14.10;99.90
7842;DHT22;3966;51.052;13.820;2023-06-14T03:06:43;13.70;99.90
7842;DHT22;3966;51.052;13.820;2023-06-14T03:09:09;14.10;99.90
7842;DHT22;3966;51.052;13.820;2023-06-14T03:11:35;14.20;99.90
7842;DHT22;3966;51.052;13.820;2023-06-14T03:14:01;14.30;99.90
7842;DHT22;3966;51.052;13.820;2023-06-14T03:16:29;14.40;99.90
7842;DHT22;3966;51.052;13.820;2023-06-14T03:18:55;14.40;99.90
7842;DHT22;3966;51.052;13.820;2023-06-14T03:21:21;14.50;99.90
7842;DHT22;3966;51.052;13.820;2023-06-14T03:23:47;14.60;99.90
7842;DHT22;3966;51.052;13.820;2023-06-14T03:26:13;14.40;99.90
7842;DHT22;3966;51.052;13.820;2023-06-14T03:28:39;14.20;99.90
7842;DHT22;3966;51.052;13.820;2023-06-14T03:31:05;14.20;99.90
7842;DHT22;3966;51.052;13.820;2023-06-14T03:33:31;14.40;99.90
7842;DHT22;3966;51.052;13.820;2023-06-14T03:35:57;14.50;99.90
7842;DHT22;3966;51.052;13.820;2023-06-14T03:38:23;14.30;99.90
7842;DHT22;3966;51.052;13.820;2023-06-14T03:40:48;14.10;99.90
7842;DHT22;3966;51.052;13.820;2023-06-14T03:43:14;14.30;99.90
7842;DHT22;3966;51.052;13.820;2023-06-14T03:45:40;14.30;99.90
7842;DHT22;3966;51.052;13.820;2023-06-14T03:48:05;14.40;99.90
7842;DHT22;3966;51.052;13.820;2023-06-14T03:50:32;14.40;99.90
7842;DHT22;3966;51.052;13.820;2023-06-14T03:52:58;14.40;99.90
7842;DHT22;3966;51.052;13.820;2023-06-14T03:55:24;14.40;99.90
7842;DHT22;3966;51.052;13.820;2023-06-14T03:57:53;14.20;99.90
7842;DHT22;3966;51.052;13.820;2023-06-14T04:00:18;14.20;99.90
7842;DHT22;3966;51.052;13.820;2023-06-14T04:02:44;14.30;99.90
7842;DHT22;3966;51.052;13.820;2023-06-14T04:05:10;14.30;99.90
7842;DHT22;3966;51.052;13.820;2023-06-14T04:07:36;14.40;99.90
7842;DHT22;3966;51.052;13.820;2023-06-14T04:10:12;14.10;99.90
7842;DHT22;3966;51.052;13.820;2023-06-14T04:12:38;14.10;99.90
7842;DHT22;3966;51.052;13.820;2023-06-14T04:15:04;13.80;99.90
7842;DHT22;3966;51.052;13.820;2023-06-14T04:17:32;13.30;99.90
7842;DHT22;3966;51.052;13.820;2023-06-14T04:20:01;13.50;99.90
7842;DHT22;3966;51.052;13.820;2023-06-14T04:22:29;13.60;99.90
7842;DHT22;3966;51.052;13.820;2023-06-14T04:24:55;14.00;99.90
7842;DHT22;3966;51.052;13.820;2023-06-14T04:27:25;14.40;99.90
7842;DHT22;3966;51.052;13.820;2023-06-14T04:29:52;14.10;99.90
7842;DHT22;3966;51.052;13.820;2023-06-14T04:32:26;14.00;99.90
7842;DHT22;3966;51.052;13.820;2023-06-14T04:34:58;13.80;99.90
7842;DHT22;3966;51.052;13.820;2023-06-14T04:37:25;13.80;99.90
7842;DHT22;3966;51.052;13.820;2023-06-14T04:39:54;13.90;99.90
7842;DHT22;3966;51.052;13.820;2023-06-14T04:42:24;14.00;99.90
7842;DHT22;3966;51.052;13.820;2023-06-14T04:44:51;13.70;99.90
7842;DHT22;3966;51.052;13.820;2023-06-14T04:47:20;13.90;99.90
7842;DHT22;3966;51.052;13.820;2023-06-14T04:49:46;13.90;99.90
7842;DHT22;3966;51.052;13.820;2023-06-14T04:52:13;14.10;99.90
7842;DHT22;3966;51.052;13.820;2023-06-14T04:54:40;14.30;99.90
7842;DHT22;3966;51.052;13.820;2023-06-14T04:57:09;14.30;99.90
7842;DHT22;3966;51.052;13.820;2023-06-14T04:59:40;14.30;99.90
7842;DHT22;3966;51.052;13.820;2023-06-14T05:02:06;14.40;99.90
7842;DHT22;3966;51.052;13.820;2023-06-14T05:04:32;14.30;99.90
7842;DHT22;3966;51.052;13.820;2023-06-14T05:06:58;14.30;99.90
7842;DHT22;3966;51.052;13.820;2023-06-14T05:09:25;14.00;99.90
7842;DHT22;3966;51.052;13.820;2023-06-14T05:11:50;13.80;99.90
7842;DHT22;3966;51.052;13.820;2023-06-14T05:14:16;14.40;99.90
7842;DHT22;3966;51.052;13.820;2023-06-14T05:16:43;14.60;99.90
7842;DHT22;3966;51.052;13.820;2023-06-14T05:19:08;14.50;99.90
7842;DHT22;3966;51.052;13.820;2023-06-14T05:21:36;14.50;99.90
7842;DHT22;3966;51.052;13.820;2023-06-14T05:24:03;14.60;99.90
7842;DHT22;3966;51.052;13.820;2023-06-14T05:26:28;14.50;99.90
7842;DHT22;3966;51.052;13.820;2023-06-14T05:28:57;14.30;99.90
7842;DHT22;3966;51.052;13.820;2023-06-14T05:31:24;14.30;99.90
7842;DHT22;3966;51.052;13.820;2023-06-14T05:33:51;14.50;99.90
7842;DHT22;3966;51.052;13.820;2023-06-14T05:36:17;14.60;99.90
7842;DHT22;3966;51.052;13.820;2023-06-14T05:38:43;15.20;99.90
7842;DHT22;3966;51.052;13.820;2023-06-14T05:41:09;15.10;99.90
7842;DHT22;3966;51.052;13.820;2023-06-14T05:43:34;15.20;99.90
7842;DHT22;3966;51.052;13.820;2023-06-14T05:46:00;15.40;99.90
7842;DHT22;3966;51.052;13.820;2023-06-14T05:48:26;15.40;99.90
7842;DHT22;3966;51.052;13.820;2023-06-14T05:50:51;15.20;99.90
7842;DHT22;3966;51.052;13.820;2023-06-14T05:53:17;14.90;99.90
7842;DHT22;3966;51.052;13.820;2023-06-14T05:55:43;14.30;99.90
7842;DHT22;3966;51.052;13.820;2023-06-14T05:58:08;14.30;99.90
7842;DHT22;3966;51.052;13.820;2023-06-14T06:00:34;14.10;99.90
7842;DHT22;3966;51.052;13.820;2023-06-14T06:03:00;14.10;99.90
7842;DHT22;3966;51.052;13.820;2023-06-14T06:05:26;14.60;99.90
7842;DHT22;3966;51.052;13.820;2023-06-14T06:07:52;15.10;99.90
7842;DHT22;3966;51.052;13.820;2023-06-14T06:10:17;15.20;99.90
7842;DHT22;3966;51.052;13.820;2023-06-14T06:12:43;15.30;99.90
7842;DHT22;3966;51.052;13.820;2023-06-14T06:15:09;15.20;99.90
7842;DHT22;3966;51.052;13.820;2023-06-14T06:17:38;15.40;99.90
7842;DHT22;3966;51.052;13.820;2023-06-14T06:20:05;15.40;99.90
7842;DHT22;3966;51.052;13.820;2023-06-14T06:22:33;15.10;99.90
7842;DHT22;3966;51.052;13.820;2023-06-14T06:24:59;15.20;99.90
7842;DHT22;3966;51.052;13.820;2023-06-14T06:27:25;15.50;99.90
7842;DHT22;3966;51.052;13.820;2023-06-14T06:29:51;15.60;99.90
7842;DHT22;3966;51.052;13.820;2023-06-14T06:32:17;16.00;99.90
7842;DHT22;3966;51.052;13.820;2023-06-14T06:34:43;16.20;99.90
7842;DHT22;3966;51.052;13.820;2023-06-14T06:37:08;16.10;99.90
7842;DHT22;3966;51.052;13.820;2023-06-14T06:39:34;15.80;99.90
7842;DHT22;3966;51.052;13.820;2023-06-14T06:42:00;15.40;99.90
7842;DHT22;3966;51.052;13.820;2023-06-14T06:44:26;15.40;99.90
7842;DHT22;3966;51.052;13.820;2023-06-14T06:46:52;15.40;99.90
7842;DHT22;3966;51.052;13.820;2023-06-14T06:49:17;15.20;99.90
7842;DHT22;3966;51.052;13.820;2023-06-14T06:51:43;15.40;99.90
7842;DHT22;3966;51.052;13.820;2023-06-14T06:54:10;15.70;99.90
7842;DHT22;3966;51.052;13.820;2023-06-14T06:56:36;15.90;99.90
7842;DHT22;3966;51.052;13.820;2023-06-14T06:59:02;16.10;99.90
7842;DHT22;3966;51.052;13.820;2023-06-14T07:01:28;16.00;99.90
7842;DHT22;3966;51.052;13.820;2023-06-14T07:03:55;15.80;99.90
7842;DHT22;3966;51.052;13.820;2023-06-14T07:06:21;15.60;99.90
7842;DHT22;3966;51.052;13.820;2023-06-14T07:08:46;15.90;99.90
7842;DHT22;3966;51.052;13.820;2023-06-14T07:11:14;16.20;99.90
7842;DHT22;3966;51.052;13.820;2023-06-14T07:13:39;16.50;99.90
7842;DHT22;3966;51.052;13.820;2023-06-14T07:16:05;16.70;99.90
7842;DHT22;3966;51.052;13.820;2023-06-14T07:18:31;16.40;99.90
7842;DHT22;3966;51.052;13.820;2023-06-14T07:20:57;16.60;99.90
7842;DHT22;3966;51.052;13.820;2023-06-14T07:23:23;16.90;99.90
7842;DHT22;3966;51.052;13.820;2023-06-14T07:25:49;17.10;99.90
7842;DHT22;3966;51.052;13.820;2023-06-14T07:28:16;17.10;99.90
7842;DHT22;3966;51.052;13.820;2023-06-14T07:30:42;17.10;99.90
7842;DHT22;3966;51.052;13.820;2023-06-14T07:33:08;17.10;99.90
7842;DHT22;3966;51.052;13.820;2023-06-14T07:35:34;17.20;99.90
7842;DHT22;3966;51.052;13.820;2023-06-14T07:37:59;17.20;99.90
7842;DHT22;3966;51.052;13.820;2023-06-14T07:40:25;17.00;99.90
7842;DHT22;3966;51.052;13.820;2023-06-14T07:42:50;17.10;99.90
7842;DHT22;3966;51.052;13.820;2023-06-14T07:45:17;17.00;99.90
7842;DHT22;3966;51.052;13.820;2023-06-14T07:47:43;17.20;99.90
7842;DHT22;3966;51.052;13.820;2023-06-14T07:50:09;17.20;99.90
7842;DHT22;3966;51.052;13.820;2023-06-14T07:52:35;17.40;99.90
7842;DHT22;3966;51.052;13.820;2023-06-14T07:55:01;17.50;99.90
7842;DHT22;3966;51.052;13.820;2023-06-14T07:57:26;17.70;99.90
7842;DHT22;3966;51.052;13.820;2023-06-14T07:59:52;17.80;99.90
7842;DHT22;3966;51.052;13.820;2023-06-14T08:02:18;18.00;99.90
7842;DHT22;3966;51.052;13.820;2023-06-14T08:04:44;18.00;99.90
7842;DHT22;3966;51.052;13.820;2023-06-14T08:07:09;18.10;99.90
7842;DHT22;3966;51.052;13.820;2023-06-14T08:09:36;18.20;99.90
7842;DHT22;3966;51.052;13.820;2023-06-14T08:12:04;18.20;99.90
7842;DHT22;3966;51.052;13.820;2023-06-14T08:14:33;17.90;99.90
7842;DHT22;3966;51.052;13.820;2023-06-14T08:16:59;18.10;99.90
7842;DHT22;3966;51.052;13.820;2023-06-14T08:19:24;18.20;99.90
7842;DHT22;3966;51.052;13.820;2023-06-14T08:21:50;18.20;99.90
7842;DHT22;3966;51.052;13.820;2023-06-14T08:24:16;17.90;99.90
7842;DHT22;3966;51.052;13.820;2023-06-14T08:26:42;18.00;99.90
7842;DHT22;3966;51.052;13.820;2023-06-14T08:29:08;18.30;99.90
7842;DHT22;3966;51.052;13.820;2023-06-14T08:31:34;18.40;99.90
7842;DHT22;3966;51.052;13.820;2023-06-14T08:33:59;18.40;99.90
7842;DHT22;3966;51.052;13.820;2023-06-14T08:36:25;18.60;99.90
7842;DHT22;3966;51.052;13.820;2023-06-14T08:38:51;18.60;99.90
7842;DHT22;3966;51.052;13.820;2023-06-14T08:41:23;18.70;99.90
7842;DHT22;3966;51.052;13.820;2023-06-14T08:43:50;18.80;99.90
7842;DHT22;3966;51.052;13.820;2023-06-14T08:46:17;18.90;99.90
7842;DHT22;3966;51.052;13.820;2023-06-14T08:48:47;18.90;99.90
7842;DHT22;3966;51.052;13.820;2023-06-14T08:51:14;19.10;99.90
7842;DHT22;3966;51.052;13.820;2023-06-14T08:53:42;19.20;99.90
7842;DHT22;3966;51.052;13.820;2023-06-14T08:56:09;19.00;99.90
7842;DHT22;3966;51.052;13.820;2023-06-14T08:58:41;19.00;99.90
7842;DHT22;3966;51.052;13.820;2023-06-14T09:01:11;19.00;99.90
7842;DHT22;3966;51.052;13.820;2023-06-14T09:03:42;19.10;99.90
7842;DHT22;3966;51.052;13.820;2023-06-14T09:06:09;19.30;99.90
7842;DHT22;3966;51.052;13.820;2023-06-14T09:08:42;19.20;99.90
7842;DHT22;3966;51.052;13.820;2023-06-14T09:11:14;19.00;99.90
7842;DHT22;3966;51.052;13.820;2023-06-14T09:13:40;18.90;99.90
7842;DHT22;3966;51.052;13.820;2023-06-14T09:16:07;19.10;99.90
7842;DHT22;3966;51.052;13.820;2023-06-14T09:18:44;19.30;99.90
7842;DHT22;3966;51.052;13.820;2023-06-14T09:21:11;19.40;99.90
7842;DHT22;3966;51.052;13.820;2023-06-14T09:23:45;19.40;99.90
7842;DHT22;3966;51.052;13.820;2023-06-14T09:26:13;19.50;99.90
7842;DHT22;3966;51.052;13.820;2023-06-14T09:28:47;19.50;99.90
7842;DHT22;3966;51.052;13.820;2023-06-14T09:31:17;19.60;99.90
7842;DHT22;3966;51.052;13.820;2023-06-14T09:33:53;19.40;99.90
7842;DHT22;3966;51.052;13.820;2023-06-14T09:36:25;19.40;99.90
7842;DHT22;3966;51.052;13.820;2023-06-14T09:38:58;19.60;99.90
7842;DHT22;3966;51.052;13.820;2023-06-14T09:41:37;19.70;99.90
7842;DHT22;3966;51.052;13.820;2023-06-14T09:44:05;19.80;99.90
7842;DHT22;3966;51.052;13.820;2023-06-14T09:46:31;20.00;99.90
7842;DHT22;3966;51.052;13.820;2023-06-14T09:49:01;20.20;99.90
7842;DHT22;3966;51.052;13.820;2023-06-14T09:51:27;20.40;99.90
7842;DHT22;3966;51.052;13.820;2023-06-14T09:53:59;20.40;99.90
7842;DHT22;3966;51.052;13.820;2023-06-14T09:56:30;20.30;99.90
7842;DHT22;3966;51.052;13.820;2023-06-14T09:58:57;20.50;99.90
7842;DHT22;3966;51.052;13.820;2023-06-14T10:01:24;20.30;99.90
7842;DHT22;3966;51.052;13.820;2023-06-14T10:04:00;20.30;99.90
7842;DHT22;3966;51.052;13.820;2023-06-14T10:06:28;20.50;99.90
7842;DHT22;3966;51.052;13.820;2023-06-14T10:08:56;20.60;99.90
7842;DHT22;3966;51.052;13.820;2023-06-14T10:11:23;20.60;99.90
7842;DHT22;3966;51.052;13.820;2023-06-14T10:13:49;20.40;99.90
7842;DHT22;3966;51.052;13.820;2023-06-14T10:16:20;20.30;99.90
7842;DHT22;3966;51.052;13.820;2023-06-14T10:21:37;19.70;99.90
7842;DHT22;3966;51.052;13.820;2023-06-14T10:24:08;19.90;99.90
7842;DHT22;3966;51.052;13.820;2023-06-14T10:26:53;20.30;99.90
7842;DHT22;3966;51.052;13.820;2023-06-14T10:29:20;20.70;99.90
7842;DHT22;3966;51.052;13.820;2023-06-14T10:31:48;21.00;99.80
7842;DHT22;3966;51.052;13.820;2023-06-14T10:34:28;21.20;99.20
7842;DHT22;3966;51.052;13.820;2023-06-14T10:37:26;20.70;98.90
7842;DHT22;3966;51.052;13.820;2023-06-14T10:39:52;20.70;99.90
7842;DHT22;3966;51.052;13.820;2023-06-14T10:42:19;21.10;99.90
7842;DHT22;3966;51.052;13.820;2023-06-14T10:44:54;21.30;99.90
7842;DHT22;3966;51.052;13.820;2023-06-14T10:47:31;21.80;98.40
7842;DHT22;3966;51.052;13.820;2023-06-14T10:50:07;22.00;98.10
7842;DHT22;3966;51.052;13.820;2023-06-14T10:52:36;22.10;97.00
7842;DHT22;3966;51.052;13.820;2023-06-14T10:57:54;21.70;97.50
7842;DHT22;3966;51.052;13.820;2023-06-14T11:00:27;21.30;98.20
7842;DHT22;3966;51.052;13.820;2023-06-14T11:05:58;20.50;99.90
7842;DHT22;3966;51.052;13.820;2023-06-14T11:09:12;20.90;99.90
7842;DHT22;3966;51.052;13.820;2023-06-14T11:11:16;21.10;99.30
7842;DHT22;3966;51.052;13.820;2023-06-14T11:13:45;21.00;99.90
7842;DHT22;3966;51.052;13.820;2023-06-14T11:16:15;20.90;99.90
7842;DHT22;3966;51.052;13.820;2023-06-14T11:18:41;20.90;99.90
7842;DHT22;3966;51.052;13.820;2023-06-14T11:21:08;20.70;99.90
7842;DHT22;3966;51.052;13.820;2023-06-14T11:23:36;20.70;99.90
7842;DHT22;3966;51.052;13.820;2023-06-14T11:26:02;21.10;99.90
7842;DHT22;3966;51.052;13.820;2023-06-14T11:28:40;21.20;99.90
7842;DHT22;3966;51.052;13.820;2023-06-14T11:31:06;21.30;99.90
7842;DHT22;3966;51.052;13.820;2023-06-14T11:33:32;21.50;99.90
7842;DHT22;3966;51.052;13.820;2023-06-14T11:35:58;21.60;99.90
7842;DHT22;3966;51.052;13.820;2023-06-14T11:38:25;21.70;99.90
7842;DHT22;3966;51.052;13.820;2023-06-14T11:40:51;21.70;99.90
7842;DHT22;3966;51.052;13.820;2023-06-14T11:43:17;21.80;99.90
7842;DHT22;3966;51.052;13.820;2023-06-14T11:45:43;21.50;99.90
7842;DHT22;3966;51.052;13.820;2023-06-14T11:48:13;21.50;99.90
7842;DHT22;3966;51.052;13.820;2023-06-14T11:50:38;21.60;99.90
7842;DHT22;3966;51.052;13.820;2023-06-14T11:53:04;21.50;99.90
7842;DHT22;3966;51.052;13.820;2023-06-14T11:55:38;21.50;99.90
7842;DHT22;3966;51.052;13.820;2023-06-14T11:58:06;21.40;99.90
7842;DHT22;3966;51.052;13.820;2023-06-14T12:00:31;21.40;99.90
7842;DHT22;3966;51.052;13.820;2023-06-14T12:02:57;21.30;99.90
7842;DHT22;3966;51.052;13.820;2023-06-14T12:05:24;21.40;99.90
7842;DHT22;3966;51.052;13.820;2023-06-14T12:07:58;21.30;99.90
7842;DHT22;3966;51.052;13.820;2023-06-14T12:10:25;21.20;99.90
7842;DHT22;3966;51.052;13.820;2023-06-14T12:12:51;21.10;99.90
7842;DHT22;3966;51.052;13.820;2023-06-14T12:15:16;21.10;99.90
7842;DHT22;3966;51.052;13.820;2023-06-14T12:17:42;21.00;99.90
7842;DHT22;3966;51.052;13.820;2023-06-14T12:20:09;21.10;99.90
7842;DHT22;3966;51.052;13.820;2023-06-14T12:22:37;21.20;99.90
7842;DHT22;3966;51.052;13.820;2023-06-14T12:25:04;21.30;99.90
7842;DHT22;3966;51.052;13.820;2023-06-14T12:27:30;21.50;99.90
7842;DHT22;3966;51.052;13.820;2023-06-14T12:30:00;21.10;99.90
7842;DHT22;3966;51.052;13.820;2023-06-14T12:32:26;20.70;99.90
7842;DHT22;3966;51.052;13.820;2023-06-14T12:34:52;21.30;99.90
7842;DHT22;3966;51.052;13.820;2023-06-14T12:37:18;21.90;99.90
7842;DHT22;3966;51.052;13.820;2023-06-14T12:39:43;22.00;99.90
7842;DHT22;3966;51.052;13.820;2023-06-14T12:42:09;22.10;99.90
7842;DHT22;3966;51.052;13.820;2023-06-14T12:44:35;21.80;99.90
7842;DHT22;3966;51.052;13.820;2023-06-14T12:47:06;21.70;99.90
7842;DHT22;3966;51.052;13.820;2023-06-14T12:49:32;21.60;99.90
7842;DHT22;3966;51.052;13.820;2023-06-14T12:51:57;22.20;99.90
7842;DHT22;3966;51.052;13.820;2023-06-14T12:54:23;22.10;99.90
7842;DHT22;3966;51.052;13.820;2023-06-14T12:56:51;21.60;99.90
7842;DHT22;3966;51.052;13.820;2023-06-14T12:59:17;21.50;99.90
7842;DHT22;3966;51.052;13.820;2023-06-14T13:01:43;21.20;99.90
7842;DHT22;3966;51.052;13.820;2023-06-14T13:04:10;20.80;99.90
7842;DHT22;3966;51.052;13.820;2023-06-14T13:06:36;20.90;99.90
7842;DHT22;3966;51.052;13.820;2023-06-14T13:09:02;21.50;99.90
7842;DHT22;3966;51.052;13.820;2023-06-14T13:11:29;22.30;99.90
7842;DHT22;3966;51.052;13.820;2023-06-14T13:13:55;22.70;99.80
7842;DHT22;3966;51.052;13.820;2023-06-14T13:16:21;22.80;97.20
7842;DHT22;3966;51.052;13.820;2023-06-14T13:18:47;23.20;96.90
7842;DHT22;3966;51.052;13.820;2023-06-14T13:21:13;23.50;96.10
7842;DHT22;3966;51.052;13.820;2023-06-14T13:23:38;23.10;97.90
7842;DHT22;3966;51.052;13.820;2023-06-14T13:26:04;23.00;99.40
7842;DHT22;3966;51.052;13.820;2023-06-14T13:28:30;22.90;99.90
7842;DHT22;3966;51.052;13.820;2023-06-14T13:30:57;22.30;99.90
7842;DHT22;3966;51.052;13.820;2023-06-14T13:33:22;22.40;99.90
7842;DHT22;3966;51.052;13.820;2023-06-14T13:35:49;22.40;99.90
7842;DHT22;3966;51.052;13.820;2023-06-14T13:38:18;22.00;99.90
7842;DHT22;3966;51.052;13.820;2023-06-14T13:40:43;22.40;99.90
7842;DHT22;3966;51.052;13.820;2023-06-14T13:43:09;22.60;99.90
7842;DHT22;3966;51.052;13.820;2023-06-14T13:45:35;23.20;99.10
7842;DHT22;3966;51.052;13.820;2023-06-14T13:48:01;23.40;98.00
7842;DHT22;3966;51.052;13.820;2023-06-14T13:50:27;23.50;95.00
7842;DHT22;3966;51.052;13.820;2023-06-14T13:52:53;23.50;96.30
7842;DHT22;3966;51.052;13.820;2023-06-14T13:55:18;23.30;96.00
7842;DHT22;3966;51.052;13.820;2023-06-14T13:57:44;23.20;96.10
7842;DHT22;3966;51.052;13.820;2023-06-14T14:00:11;23.10;98.70
7842;DHT22;3966;51.052;13.820;2023-06-14T14:02:37;22.90;98.40
7842;DHT22;3966;51.052;13.820;2023-06-14T14:05:03;23.10;98.90
7842;DHT22;3966;51.052;13.820;2023-06-14T14:07:28;23.20;98.20
7842;DHT22;3966;51.052;13.820;2023-06-14T14:09:55;23.20;98.20
7842;DHT22;3966;51.052;13.820;2023-06-14T14:12:23;23.00;98.40
7842;DHT22;3966;51.052;13.820;2023-06-14T14:14:49;22.70;98.30
7842;DHT22;3966;51.052;13.820;2023-06-14T14:17:16;23.20;98.90
7842;DHT22;3966;51.052;13.820;2023-06-14T14:19:45;23.70;98.60
7842;DHT22;3966;51.052;13.820;2023-06-14T14:22:10;24.90;94.50
7842;DHT22;3966;51.052;13.820;2023-06-14T14:24:36;25.40;93.70
7842;DHT22;3966;51.052;13.820;2023-06-14T14:27:02;25.20;92.20
7842;DHT22;3966;51.052;13.820;2023-06-14T14:29:28;25.10;91.80
7842;DHT22;3966;51.052;13.820;2023-06-14T14:31:55;25.20;92.00
7842;DHT22;3966;51.052;13.820;2023-06-14T14:34:22;25.50;90.20
7842;DHT22;3966;51.052;13.820;2023-06-14T14:36:47;25.60;88.30
7842;DHT22;3966;51.052;13.820;2023-06-14T14:39:14;26.50;85.30
7842;DHT22;3966;51.052;13.820;2023-06-14T14:41:39;27.00;82.00
7842;DHT22;3966;51.052;13.820;2023-06-14T14:44:06;26.30;81.80
7842;DHT22;3966;51.052;13.820;2023-06-14T14:46:32;26.20;76.80
7842;DHT22;3966;51.052;13.820;2023-06-14T14:48:59;26.40;76.10
7842;DHT22;3966;51.052;13.820;2023-06-14T14:51:25;25.90;76.10
7842;DHT22;3966;51.052;13.820;2023-06-14T14:53:51;25.20;77.80
7842;DHT22;3966;51.052;13.820;2023-06-14T14:56:16;24.60;79.40
7842;DHT22;3966;51.052;13.820;2023-06-14T14:58:42;23.90;80.40
7842;DHT22;3966;51.052;13.820;2023-06-14T15:01:09;23.40;82.10
7842;DHT22;3966;51.052;13.820;2023-06-14T15:03:35;23.10;83.10
7842;DHT22;3966;51.052;13.820;2023-06-14T15:06:01;23.60;85.30
7842;DHT22;3966;51.052;13.820;2023-06-14T15:08:27;24.40;84.90
7842;DHT22;3966;51.052;13.820;2023-06-14T15:10:52;25.80;77.00
7842;DHT22;3966;51.052;13.820;2023-06-14T15:13:18;25.90;76.80
7842;DHT22;3966;51.052;13.820;2023-06-14T15:15:44;25.40;75.40
7842;DHT22;3966;51.052;13.820;2023-06-14T15:18:09;25.20;77.50
7842;DHT22;3966;51.052;13.820;2023-06-14T15:20:35;25.80;75.30
7842;DHT22;3966;51.052;13.820;2023-06-14T15:23:01;24.80;77.00
7842;DHT22;3966;51.052;13.820;2023-06-14T15:25:30;24.30;79.30
7842;DHT22;3966;51.052;13.820;2023-06-14T15:27:57;24.10;80.30
7842;DHT22;3966;51.052;13.820;2023-06-14T15:30:23;24.60;80.70
7842;DHT22;3966;51.052;13.820;2023-06-14T15:32:49;25.20;79.00
7842;DHT22;3966;51.052;13.820;2023-06-14T15:35:17;26.10;77.20
7842;DHT22;3966;51.052;13.820;2023-06-14T15:37:43;26.50;74.80
7842;DHT22;3966;51.052;13.820;2023-06-14T15:40:09;26.70;74.80
7842;DHT22;3966;51.052;13.820;2023-06-14T15:42:35;27.20;74.80
7842;DHT22;3966;51.052;13.820;2023-06-14T15:45:01;27.00;69.30
7842;DHT22;3966;51.052;13.820;2023-06-14T15:47:26;26.90;70.60
7842;DHT22;3966;51.052;13.820;2023-06-14T15:49:52;27.20;70.50
7842;DHT22;3966;51.052;13.820;2023-06-14T15:52:18;27.20;66.00
7842;DHT22;3966;51.052;13.820;2023-06-14T15:54:43;26.90;64.60
7842;DHT22;3966;51.052;13.820;2023-06-14T15:57:09;27.30;63.20